Time;durP1;ratioP1;P1;durP2;ratioP2;P2;SDS_P1;SDS_P2;PMS_P1;PMS_P2;Temp;Humidity;BMP_temperature;BMP_pressure;BME280_temperature;BME280_humidity;BME280_pressure;Samples;Min_cycle;Max_cycle;Signal;HPM_P1;HPM_P2
2022/12/09 00:01:13;;;;;;;;;;;;;;;17.04;51.16;100692.47;4997787;28;1141;-44
2022/12/09 00:03:38;;;;;;;;;;;;;;;16.35;52.83;100698.28;4997408;28;1196;-43
2022/12/09 00:06:07;;;;;;;;;;;;;;;15.90;53.83;100697.13;4997590;28;1983;-47
2022/12/09 00:08:33;;;;;;;;;;;;;;;15.69;54.16;100697.03;4980059;28;1145;-44
2022/12/09 00:10:59;;;;;;;;;;;;;;;15.54;54.31;100703.31;4997253;28;1125;-48
2022/12/09 00:13:24;;;;;;;;;;;;;;;15.51;54.59;100716.72;4997547;28;1168;-48
2022/12/09 00:15:49;;;;;;;;;;;;;;;17.07;51.34;100700.97;4997206;28;1222;-49
2022/12/09 00:18:15;;;;;;;;;;;;;;;16.42;52.78;100698.00;4996706;28;1140;-48
2022/12/09 00:20:40;;;;;;;;;;;;;;;15.90;53.74;100700.69;4997015;28;1136;-47
2022/12/09 00:23:06;;;;;;;;;;;;;;;15.66;54.22;100705.81;4997105;28;1482;-46
2022/12/09 00:25:31;;;;;;;;;;;;;;;16.25;53.24;100695.53;4997110;28;1385;-45
2022/12/09 00:27:57;;;;;;;;;;;;;;;17.01;51.12;100704.84;4997279;28;1914;-45
2022/12/09 00:30:22;;;;;;;;;;;;;;;16.09;53.41;100705.69;4997364;28;1188;-49
2022/12/09 00:32:48;;;;;;;;;;;;;;;15.82;54.03;100700.41;4996725;28;1227;-48
2022/12/09 00:35:13;;;;;;;;;;;;;;;15.64;54.51;100705.25;4996770;28;1171;-48
2022/12/09 00:37:38;;;;;;;;;;;;;;;15.61;54.32;100711.25;4979540;28;1129;-48
2022/12/09 00:40:04;;;;;;;;;;;;;;;17.13;50.79;100710.03;4979259;28;1280;-47
2022/12/09 00:42:30;;;;;;;;;;;;;;;16.35;52.70;100709.25;4997179;28;1117;-48
2022/12/09 00:44:55;;;;;;;;;;;;;;;15.86;53.88;100715.22;4979654;28;1310;-47
2022/12/09 00:47:21;;;;;;;;;;;;;;;15.65;54.43;100711.56;4996302;28;1898;-47
2022/12/09 00:49:46;;;;;;;;;;;;;;;15.65;54.37;100712.38;4979245;28;1148;-46
2022/12/09 00:52:11;;;;;;;;;;;;;;;17.18;50.97;100699.03;4979705;28;1570;-45
2022/12/09 00:54:37;;;;;;;;;;;;;;;16.47;52.36;100699.94;4996537;28;1223;-45
2022/12/09 00:57:02;;;;;;;;;;;;;;;15.99;53.64;100706.47;4979529;28;1164;-45
2022/12/09 00:59:28;;;;;;;;;;;;;;;15.76;54.25;100702.25;4996401;28;1184;-46
2022/12/09 01:01:53;;;;;;;;;;;;;;;15.53;54.57;100703.56;4996230;28;1136;-48
2022/12/09 01:04:19;;;;;;;;;;;;;;;15.46;54.66;100697.50;4979331;28;1312;-46
2022/12/09 01:06:45;;;;;;;;;;;;;;;16.07;53.86;100694.97;4996938;28;1902;-44
2022/12/09 01:09:11;;;;;;;;;;;;;;;17.33;50.32;100692.66;4996739;28;1184;-48
2022/12/09 01:11:36;;;;;;;;;;;;;;;16.31;52.76;100688.94;4996240;28;1121;-47
2022/12/09 01:14:02;;;;;;;;;;;;;;;15.87;53.83;100705.91;4996951;28;1216;-44
2022/12/09 01:16:29;;;;;;;;;;;;;;;15.66;54.28;100696.75;4996788;28;1446;-45
2022/12/09 01:18:56;;;;;;;;;;;;;;;15.50;54.45;100709.56;4996525;28;1196;-47
2022/12/09 01:21:23;;;;;;;;;;;;;;;15.37;54.81;100705.41;4996773;28;1133;-48
2022/12/09 01:23:48;;;;;;;;;;;;;;;16.69;52.33;100711.47;4995150;28;1316;-47
2022/12/09 01:26:14;;;;;;;;;;;;;;;16.84;51.29;100705.09;4978184;28;1963;-47
2022/12/09 01:28:39;;;;;;;;;;;;;;;16.02;53.73;100703.19;4996788;28;1097;-46
2022/12/09 01:31:09;;;;;;;;;;;;;;;15.77;54.06;100703.91;4995897;28;1200;-48
2022/12/09 01:33:34;;;;;;;;;;;;;;;15.57;54.30;100704.66;4996742;28;1053;-49
2022/12/09 01:36:02;;;;;;;;;;;;;;;16.17;53.58;100707.03;4996091;28;1136;-47
2022/12/09 01:38:28;;;;;;;;;;;;;;;17.09;51.01;100700.69;4996240;28;1163;-45
2022/12/09 01:40:53;;;;;;;;;;;;;;;16.16;53.43;100705.38;4995892;28;1243;-47
2022/12/09 01:43:19;;;;;;;;;;;;;;;15.81;54.03;100704.22;4996442;28;954;-45
2022/12/09 01:45:44;;;;;;;;;;;;;;;15.60;54.46;100698.66;4996480;28;1176;-48
2022/12/09 01:48:14;;;;;;;;;;;;;;;16.65;52.40;100707.63;4978460;28;1982;-49
2022/12/09 01:50:52;;;;;;;;;;;;;;;16.62;51.94;100697.19;4996140;28;1521;-46
2022/12/09 01:53:17;;;;;;;;;;;;;;;15.94;53.66;100702.91;4996255;28;1278;-46
2022/12/09 01:55:43;;;;;;;;;;;;;;;15.72;54.12;100698.41;4996546;28;1204;-45
2022/12/09 01:58:08;;;;;;;;;;;;;;;15.54;54.39;100699.72;4979158;28;1102;-49
2022/12/09 02:00:34;;;;;;;;;;;;;;;15.86;54.08;100707.00;4978529;28;1180;-49
2022/12/09 02:03:01;;;;;;;;;;;;;;;17.27;50.64;100694.59;4978481;28;1292;-45
2022/12/09 02:05:27;;;;;;;;;;;;;;;16.26;53.11;100694.44;4996310;28;1395;-49
2022/12/09 02:07:56;;;;;;;;;;;;;;;15.85;53.88;100706.19;4978859;28;1967;-50
2022/12/09 02:10:21;;;;;;;;;;;;;;;15.71;54.12;100708.56;4995759;28;1156;-47
2022/12/09 02:13:04;;;;;;;;;;;;;;;16.13;53.44;100716.91;4964279;28;1114;-47
2022/12/09 02:15:43;;;;;;;;;;;;;;;17.02;50.98;100714.72;4980838;28;1226;-45
2022/12/09 02:18:18;;;;;;;;;;;;;;;16.06;53.36;100718.00;4982048;28;1141;-47
2022/12/09 02:20:48;;;;;;;;;;;;;;;15.79;54.09;100720.09;4982310;28;1229;-46
2022/12/09 02:23:13;;;;;;;;;;;;;;;15.60;54.32;100711.53;4981612;28;1141;-44
2022/12/09 02:25:47;;;;;;;;;;;;;;;15.75;54.53;100711.56;4981721;28;1423;-47
2022/12/09 02:28:31;;;;;;;;;;;;;;;17.20;50.69;100696.81;4981940;28;1899;-46
2022/12/09 02:31:12;;;;;;;;;;;;;;;16.12;53.58;100693.31;4981939;28;2330;-44
2022/12/09 02:33:39;;;;;;;;;;;;;;;15.78;54.06;100688.28;4981887;28;1125;-47
2022/12/09 02:36:06;;;;;;;;;;;;;;;15.58;54.60;100687.13;4962403;28;1262;-47
2022/12/09 02:38:32;;;;;;;;;;;;;;;16.42;52.78;100679.63;4962421;28;1252;-50
2022/12/09 02:41:15;;;;;;;;;;;;;;;16.90;51.38;100664.75;4990695;28;1244;-45
2022/12/09 02:43:45;;;;;;;;;;;;;;;16.00;53.53;100675.19;4965760;28;1188;-47
2022/12/09 02:46:11;;;;;;;;;;;;;;;15.78;54.00;100680.91;4965610;28;1965;-45
2022/12/09 02:48:42;;;;;;;;;;;;;;;15.66;54.32;100677.56;4981067;28;1622;-45
2022/12/09 02:51:09;;;;;;;;;;;;;;;17.18;50.65;100688.03;4981976;28;1093;-48
2022/12/09 02:53:35;;;;;;;;;;;;;;;16.41;52.71;100688.13;4981266;28;1295;-46
2022/12/09 02:56:02;;;;;;;;;;;;;;;15.91;53.74;100687.81;4979864;28;1320;-47
2022/12/09 02:58:31;;;;;;;;;;;;;;;15.73;54.32;100686.38;4981411;28;1192;-47
2022/12/09 03:00:56;;;;;;;;;;;;;;;15.59;54.42;100669.59;4998022;28;1772;-45
2022/12/09 03:03:22;;;;;;;;;;;;;;;17.09;50.85;100665.78;4998531;28;1120;-46
2022/12/09 03:05:50;;;;;;;;;;;;;;;16.42;52.79;100681.53;4981443;28;990;-44
2022/12/09 03:08:16;;;;;;;;;;;;;;;15.92;53.80;100683.94;4998350;28;1969;-48
2022/12/09 03:10:44;;;;;;;;;;;;;;;15.69;54.40;100686.06;4998960;28;1132;-44
2022/12/09 03:13:13;;;;;;;;;;;;;;;15.55;54.41;100695.91;4998562;28;916;-45
2022/12/09 03:15:40;;;;;;;;;;;;;;;16.84;51.59;100693.31;4980588;28;1161;-47
2022/12/09 03:18:06;;;;;;;;;;;;;;;16.50;52.38;100702.13;4980924;28;1168;-45
2022/12/09 03:20:31;;;;;;;;;;;;;;;15.93;53.86;100712.22;4981138;28;1164;-44
2022/12/09 03:22:58;;;;;;;;;;;;;;;15.71;54.23;100711.31;4980968;28;1160;-47
2022/12/09 03:25:25;;;;;;;;;;;;;;;15.57;54.24;100704.66;4997458;28;1180;-49
2022/12/09 03:27:57;;;;;;;;;;;;;;;15.76;54.50;100712.41;4981555;28;1910;-46
2022/12/09 03:30:23;;;;;;;;;;;;;;;17.23;50.75;100711.94;4980902;28;1196;-47
2022/12/09 03:32:48;;;;;;;;;;;;;;;16.25;53.25;100721.03;4997975;28;1204;-47
2022/12/09 03:35:15;;;;;;;;;;;;;;;15.82;54.24;100716.84;4980566;28;1301;-46
2022/12/09 03:37:40;;;;;;;;;;;;;;;15.64;54.29;100723.59;4980468;28;843;-47
2022/12/09 03:40:06;;;;;;;;;;;;;;;15.47;54.55;100721.88;4997743;28;1160;-49
2022/12/09 03:42:33;;;;;;;;;;;;;;;16.08;53.53;100724.03;4997744;28;1267;-50
2022/12/09 03:45:00;;;;;;;;;;;;;;;17.05;51.03;100722.41;4996274;28;1165;-47
2022/12/09 03:47:29;;;;;;;;;;;;;;;16.13;53.42;100714.16;4981242;28;1918;-52
2022/12/09 03:49:55;;;;;;;;;;;;;;;15.77;54.37;100719.53;4997626;28;1227;-50
2022/12/09 03:52:29;;;;;;;;;;;;;;;15.59;54.33;100729.91;4997786;28;1125;-49
2022/12/09 03:54:59;;;;;;;;;;;;;;;17.02;51.43;100725.72;4995069;28;1152;-47
2022/12/09 03:57:24;;;;;;;;;;;;;;;16.33;52.70;100727.09;4980172;28;1252;-54
2022/12/09 03:59:58;;;;;;;;;;;;;;;15.85;53.72;100732.75;4980445;28;1125;-52
2022/12/09 04:02:23;;;;;;;;;;;;;;;15.67;54.39;100742.25;4997144;28;1053;-52
2022/12/09 04:04:48;;;;;;;;;;;;;;;15.51;54.69;100733.16;4980298;28;1232;-51
2022/12/09 04:07:14;;;;;;;;;;;;;;;15.87;54.09;100727.84;4997334;28;1981;-49
2022/12/09 04:09:39;;;;;;;;;;;;;;;17.18;50.77;100728.41;4997458;28;1137;-47
2022/12/09 04:12:05;;;;;;;;;;;;;;;16.14;53.38;100730.34;4997638;28;1121;-47
2022/12/09 04:14:31;;;;;;;;;;;;;;;15.74;54.22;100724.47;4996823;28;1414;-47
2022/12/09 04:16:56;;;;;;;;;;;;;;;15.62;54.36;100734.84;4997303;28;1156;-48
2022/12/09 04:19:21;;;;;;;;;;;;;;;16.15;53.59;100731.19;4997755;28;1136;-48
2022/12/09 04:21:47;;;;;;;;;;;;;;;17.48;50.11;100729.44;4997227;28;1243;-53
2022/12/09 04:24:12;;;;;;;;;;;;;;;16.55;52.34;100727.66;4997366;28;1136;-52
2022/12/09 04:26:38;;;;;;;;;;;;;;;16.05;53.40;100727.31;4996844;28;1977;-53
2022/12/09 04:29:03;;;;;;;;;;;;;;;15.83;53.98;100723.97;4997190;28;1168;-53
2022/12/09 04:31:29;;;;;;;;;;;;;;;15.61;54.21;100722.22;4997410;28;1188;-51
2022/12/09 04:33:54;;;;;;;;;;;;;;;15.50;54.41;100726.84;4997242;28;1144;-45
2022/12/09 04:36:19;;;;;;;;;;;;;;;16.88;51.63;100728.19;4996560;28;1367;-55
2022/12/09 04:38:45;;;;;;;;;;;;;;;16.56;52.37;100731.22;4995929;28;927;-49
2022/12/09 04:41:11;;;;;;;;;;;;;;;15.95;53.70;100732.81;4997195;28;1208;-49
2022/12/09 04:43:36;;;;;;;;;;;;;;;15.71;54.16;100727.75;4997010;28;1148;-54
2022/12/09 04:46:06;;;;;;;;;;;;;;;15.54;54.78;100727.97;4996863;28;1906;-51
2022/12/09 04:48:31;;;;;;;;;;;;;;;15.55;54.51;100737.00;4996726;28;1118;-52
2022/12/09 04:50:58;;;;;;;;;;;;;;;17.11;51.14;100731.47;4994702;28;1206;-55
2022/12/09 04:53:23;;;;;;;;;;;;;;;16.47;52.32;100727.41;4982830;28;1145;-55
2022/12/09 04:55:49;;;;;;;;;;;;;;;15.92;53.98;100727.81;4991277;28;1006;-52
2022/12/09 04:58:14;;;;;;;;;;;;;;;15.70;54.15;100726.09;4995312;28;1351;-51
2022/12/09 05:00:39;;;;;;;;;;;;;;;15.53;54.62;100725.50;4996307;28;1216;-53
2022/12/09 05:03:05;;;;;;;;;;;;;;;16.90;51.67;100722.44;4997037;28;1127;-49
2022/12/09 05:05:30;;;;;;;;;;;;;;;16.49;52.32;100736.16;4996496;28;1211;-51
2022/12/09 05:07:56;;;;;;;;;;;;;;;15.91;53.80;100734.44;4996563;28;1918;-53
2022/12/09 05:10:21;;;;;;;;;;;;;;;15.66;54.37;100735.94;4997057;28;1211;-53
2022/12/09 05:12:47;;;;;;;;;;;;;;;15.54;54.68;100736.19;4996613;28;1148;-54
2022/12/09 05:15:12;;;;;;;;;;;;;;;15.40;54.54;100743.22;4996636;28;1124;-54
2022/12/09 05:17:37;;;;;;;;;;;;;;;16.79;51.96;100740.84;4996435;28;1216;-52
2022/12/09 05:20:03;;;;;;;;;;;;;;;16.29;52.87;100737.78;4996807;28;1161;-52
2022/12/09 05:22:28;;;;;;;;;;;;;;;15.76;54.23;100742.56;4996808;28;1215;-53
2022/12/09 05:24:54;;;;;;;;;;;;;;;15.58;54.65;100744.69;4996911;28;1164;-52
2022/12/09 05:27:19;;;;;;;;;;;;;;;15.52;54.64;100754.81;4996317;28;1913;-53
2022/12/09 05:29:45;;;;;;;;;;;;;;;17.04;51.11;100751.00;4996216;28;1165;-54
2022/12/09 05:32:10;;;;;;;;;;;;;;;16.38;52.85;100760.03;4996727;28;1141;-50
2022/12/09 05:34:36;;;;;;;;;;;;;;;15.83;54.10;100756.88;4991754;28;1207;-52
2022/12/09 05:37:02;;;;;;;;;;;;;;;15.62;54.50;100765.00;4995479;28;1200;-49
2022/12/09 05:39:27;;;;;;;;;;;;;;;15.46;54.70;100760.53;4978232;28;1197;-49
2022/12/09 05:41:52;;;;;;;;;;;;;;;16.55;52.46;100763.34;4982138;28;1339;-49
2022/12/09 05:44:18;;;;;;;;;;;;;;;16.87;51.65;100764.16;4976563;28;1402;-51
2022/12/09 05:46:43;;;;;;;;;;;;;;;16.02;53.51;100774.50;4976614;28;1914;-52
2022/12/09 05:49:09;;;;;;;;;;;;;;;15.71;54.16;100774.38;4979175;28;1244;-49
2022/12/09 05:51:34;;;;;;;;;;;;;;;15.59;54.55;100778.41;4980663;28;1237;-51
2022/12/09 05:54:00;;;;;;;;;;;;;;;16.10;53.77;100775.06;4980371;28;1267;-54
2022/12/09 05:56:25;;;;;;;;;;;;;;;17.33;50.26;100766.03;4980550;28;1268;-52
2022/12/09 05:58:51;;;;;;;;;;;;;;;16.26;52.91;100771.28;4998372;28;1217;-52
2022/12/09 06:01:16;;;;;;;;;;;;;;;15.85;54.10;100771.97;4999296;28;1240;-50
2022/12/09 06:03:42;;;;;;;;;;;;;;;15.68;54.15;100782.28;4999793;28;1205;-54
2022/12/09 06:06:08;;;;;;;;;;;;;;;15.54;54.56;100782.78;4999044;28;1906;-52
2022/12/09 06:08:34;;;;;;;;;;;;;;;17.04;51.02;100774.88;4992155;28;1199;-53
2022/12/09 06:10:59;;;;;;;;;;;;;;;16.26;53.00;100782.25;4984516;28;1228;-51
2022/12/09 06:13:25;;;;;;;;;;;;;;;15.79;54.19;100788.66;4999340;28;1112;-52
2022/12/09 06:15:51;;;;;;;;;;;;;;;15.63;54.41;100785.03;4998838;28;1180;-50
2022/12/09 06:18:16;;;;;;;;;;;;;;;15.73;54.33;100794.09;4979972;28;1244;-50
2022/12/09 06:20:42;;;;;;;;;;;;;;;17.23;50.53;100788.88;4979066;28;1221;-50
2022/12/09 06:23:07;;;;;;;;;;;;;;;16.31;53.00;100801.44;4979756;28;1275;-53
2022/12/09 06:25:32;;;;;;;;;;;;;;;15.88;53.76;100803.53;4998768;28;1109;-49
2022/12/09 06:27:58;;;;;;;;;;;;;;;15.76;54.44;100803.72;4999526;28;1918;-50
2022/12/09 06:30:23;;;;;;;;;;;;;;;17.04;51.07;100803.19;4999391;28;1207;-53
2022/12/09 06:32:49;;;;;;;;;;;;;;;16.08;51.83;100806.31;4999721;28;1140;-52
2022/12/09 06:35:14;;;;;;;;;;;;;;;17.58;50.01;100793.44;4998787;28;1208;-51
2022/12/09 06:37:40;;;;;;;;;;;;;;;16.95;50.99;100793.84;4998944;28;1136;-54
2022/12/09 06:40:05;;;;;;;;;;;;;;;16.29;50.72;100791.84;4999008;28;1235;-51
2022/12/09 06:42:31;;;;;;;;;;;;;;;17.58;50.38;100789.88;4999055;28;1152;-52
2022/12/09 06:44:56;;;;;;;;;;;;;;;16.59;50.78;100797.41;4998917;28;1199;-49
2022/12/09 06:47:21;;;;;;;;;;;;;;;17.93;49.90;100802.69;4999134;28;1967;-51
2022/12/09 06:49:47;;;;;;;;;;;;;;;17.44;50.22;100808.88;4998740;28;1164;-51
2022/12/09 06:52:12;;;;;;;;;;;;;;;16.67;50.42;100814.41;4999055;28;1156;-49
2022/12/09 06:54:38;;;;;;;;;;;;;;;16.45;49.42;100809.16;4999387;28;1208;-52
2022/12/09 06:57:03;;;;;;;;;;;;;;;17.19;50.97;100815.25;4998895;28;1117;-50
2022/12/09 06:59:28;;;;;;;;;;;;;;;16.52;51.19;100820.69;4998662;28;1179;-56
2022/12/09 07:01:54;;;;;;;;;;;;;;;18.19;49.64;100821.84;4997516;28;1179;-56
2022/12/09 07:04:20;;;;;;;;;;;;;;;17.47;50.64;100826.75;4998879;28;1184;-56
2022/12/09 07:06:45;;;;;;;;;;;;;;;16.84;50.16;100822.38;4998143;28;1972;-57
2022/12/09 07:09:12;;;;;;;;;;;;;;;17.45;50.67;100816.84;4998157;28;1291;-56
2022/12/09 07:11:39;;;;;;;;;;;;;;;16.79;50.73;100830.59;4998235;28;1105;-55
2022/12/09 07:14:04;;;;;;;;;;;;;;;16.55;50.11;100822.91;4998305;28;1204;-55
2022/12/09 07:16:29;;;;;;;;;;;;;;;17.21;50.88;100824.06;4998285;28;1117;-56
2022/12/09 07:18:55;;;;;;;;;;;;;;;16.62;50.17;100818.00;4998734;28;1129;-53
2022/12/09 07:21:21;;;;;;;;;;;;;;;17.33;50.84;100826.50;4998193;28;1172;-51
2022/12/09 07:23:46;;;;;;;;;;;;;;;16.87;50.90;100833.66;4998215;28;1192;-53
2022/12/09 07:26:12;;;;;;;;;;;;;;;16.95;51.43;100826.81;4997996;28;1902;-47
2022/12/09 07:28:45;;;;;;;;;;;;;;;17.68;50.49;100833.03;4998587;28;1184;-51
2022/12/09 07:31:26;;;;;;;;;;;;;;;16.77;50.72;100839.13;4993035;28;1152;-51
2022/12/09 07:33:53;;;;;;;;;;;;;;;18.42;49.41;100838.78;4983481;28;896;-54
2022/12/09 07:36:21;;;;;;;;;;;;;;;17.36;50.72;100843.28;4996295;28;1239;-52
2022/12/09 07:38:46;;;;;;;;;;;;;;;16.88;49.93;100842.72;4996917;28;1148;-53
2022/12/09 07:41:16;;;;;;;;;;;;;;;17.84;50.60;100839.28;4991109;28;1136;-57
2022/12/09 07:43:45;;;;;;;;;;;;;;;17.14;50.67;100850.97;4993636;28;1225;-57
2022/12/09 07:46:11;;;;;;;;;;;;;;;16.80;49.76;100846.81;4989143;28;1967;-53
2022/12/09 07:48:37;;;;;;;;;;;;;;;17.56;50.62;100838.84;4996706;28;1208;-52
2022/12/09 07:51:03;;;;;;;;;;;;;;;16.97;50.29;100835.63;4995405;28;1208;-52
2022/12/09 07:53:28;;;;;;;;;;;;;;;16.66;49.18;100838.31;4994453;28;1180;-49
2022/12/09 07:55:54;;;;;;;;;;;;;;;17.17;50.70;100833.97;4997563;28;1140;-50
2022/12/09 07:58:19;;;;;;;;;;;;;;;16.75;49.69;100841.34;4997491;28;1164;-46
2022/12/09 08:00:45;;;;;;;;;;;;;;;18.36;49.19;100831.69;4997398;28;1168;-48
2022/12/09 08:03:13;;;;;;;;;;;;;;;17.37;50.53;100833.09;4996729;28;1141;-53
2022/12/09 08:05:51;;;;;;;;;;;;;;;17.00;49.65;100835.06;4997296;28;1220;-53
2022/12/09 08:08:16;;;;;;;;;;;;;;;16.70;48.64;100838.56;4997490;28;1906;-53
2022/12/09 08:10:42;;;;;;;;;;;;;;;17.75;50.73;100848.16;4997242;28;1188;-52
2022/12/09 08:13:07;;;;;;;;;;;;;;;17.07;50.37;100843.84;4997191;28;1200;-51
2022/12/09 08:15:33;;;;;;;;;;;;;;;16.75;49.51;100844.09;4997123;28;1097;-54
2022/12/09 08:17:58;;;;;;;;;;;;;;;17.14;50.34;100846.31;4997377;28;1152;-54
2022/12/09 08:20:23;;;;;;;;;;;;;;;17.40;50.48;100849.03;4997168;28;1254;-54
2022/12/09 08:22:49;;;;;;;;;;;;;;;16.80;49.84;100848.75;4996864;28;1092;-53
2022/12/09 08:25:14;;;;;;;;;;;;;;;16.80;49.17;100843.25;4995249;28;1550;-50
2022/12/09 08:27:40;;;;;;;;;;;;;;;17.06;50.24;100839.44;4979594;28;1967;-49
2022/12/09 08:30:05;;;;;;;;;;;;;;;17.42;50.66;100842.16;4982784;28;1216;-51
2022/12/09 08:32:31;;;;;;;;;;;;;;;18.78;48.59;100839.38;4988057;28;1005;-55
2022/12/09 08:34:56;;;;;;;;;;;;;;;17.41;50.17;100835.00;4985254;28;1022;-54
2022/12/09 08:37:22;;;;;;;;;;;;;;;16.95;49.66;100840.53;4986544;28;1074;-44
2022/12/09 08:39:47;;;;;;;;;;;;;;;17.78;50.45;100831.06;4989240;28;1060;-44
2022/12/09 08:42:13;;;;;;;;;;;;;;;17.02;50.45;100832.03;4988350;28;927;-48
2022/12/09 08:44:38;;;;;;;;;;;;;;;16.94;48.97;100833.41;4988496;28;854;-48
2022/12/09 08:47:04;;;;;;;;;;;;;;;17.42;50.57;100830.34;4990677;28;1973;-48
2022/12/09 08:49:29;;;;;;;;;;;;;;;16.86;50.19;100829.25;4989453;28;1160;-50
2022/12/09 08:51:54;;;;;;;;;;;;;;;16.68;48.83;100833.34;4989260;28;1088;-47
2022/12/09 08:54:20;;;;;;;;;;;;;;;16.57;48.03;100831.69;4989456;28;937;-51
2022/12/09 08:56:46;;;;;;;;;;;;;;;17.43;49.72;100827.31;4988604;28;996;-48
2022/12/09 08:59:11;;;;;;;;;;;;;;;16.96;49.82;100822.97;4989351;28;906;-47
2022/12/09 09:01:37;;;;;;;;;;;;;;;16.60;49.20;100820.16;4989908;28;958;-45
2022/12/09 09:04:03;;;;;;;;;;;;;;;17.26;49.64;100818.53;4989212;28;819;-46
2022/12/09 09:06:29;;;;;;;;;;;;;;;16.88;49.92;100816.09;4988859;28;1910;-49
2022/12/09 09:08:55;;;;;;;;;;;;;;;16.58;49.62;100814.13;4988981;28;1116;-48
2022/12/09 09:11:20;;;;;;;;;;;;;;;17.74;49.49;100810.72;4989750;28;891;-47
2022/12/09 09:13:46;;;;;;;;;;;;;;;16.91;49.86;100809.22;4983737;28;975;-51
2022/12/09 09:16:16;;;;;;;;;;;;;;;16.70;48.80;100809.19;4987393;28;934;-46
2022/12/09 09:18:41;;;;;;;;;;;;;;;17.60;49.61;100807.75;4988059;28;1204;-47
2022/12/09 09:21:07;;;;;;;;;;;;;;;16.97;49.65;100796.31;4989402;28;1425;-45
2022/12/09 09:23:33;;;;;;;;;;;;;;;17.72;49.85;100801.13;4989943;28;885;-45
2022/12/09 09:25:58;;;;;;;;;;;;;;;17.85;49.90;100791.44;4992329;28;1036;-47
2022/12/09 09:28:24;;;;;;;;;;;;;;;17.06;49.83;100795.47;4992588;28;1989;-49
2022/12/09 09:30:56;;;;;;;;;;;;;;;16.87;49.82;100794.38;4996787;28;937;-46
2022/12/09 09:33:22;;;;;;;;;;;;;;;17.50;50.37;100794.03;5000181;28;1156;-44
2022/12/09 09:35:53;;;;;;;;;;;;;;;16.98;49.98;100782.31;4999455;28;1105;-46
2022/12/09 09:38:18;;;;;;;;;;;;;;;17.04;49.29;100791.38;5000249;28;1040;-46
2022/12/09 09:40:44;;;;;;;;;;;;;;;17.45;50.24;100785.81;4999821;28;844;-47
2022/12/09 09:43:12;;;;;;;;;;;;;;;16.89;49.72;100781.22;4982494;28;1022;-48
2022/12/09 09:45:37;;;;;;;;;;;;;;;16.73;48.73;100774.88;4999752;28;1051;-45
2022/12/09 09:48:03;;;;;;;;;;;;;;;17.31;49.35;100779.25;4982359;28;1975;-47
2022/12/09 09:50:42;;;;;;;;;;;;;;;17.28;49.86;100778.69;4978897;28;1239;-49
2022/12/09 09:53:13;;;;;;;;;;;;;;;16.95;49.01;100784.78;4998772;28;1074;-47
2022/12/09 09:55:47;;;;;;;;;;;;;;;16.69;48.10;100790.25;4998974;28;1272;-51
2022/12/09 09:58:16;;;;;;;;;;;;;;;16.86;48.64;100784.50;4982253;28;1291;-53
2022/12/09 10:00:57;;;;;;;;;;;;;;;17.29;49.51;100793.25;4976814;28;1287;-49
2022/12/09 10:03:26;;;;;;;;;;;;;;;16.69;49.23;100793.81;4972556;28;1335;-49
2022/12/09 10:05:52;;;;;;;;;;;;;;;18.26;48.79;100788.50;4999392;28;1189;-51
2022/12/09 10:08:36;;;;;;;;;;;;;;;17.20;49.87;100792.19;4999084;28;1983;-49
2022/12/09 10:11:02;;;;;;;;;;;;;;;18.24;49.24;100774.19;4998790;28;1302;-51
2022/12/09 10:13:33;;;;;;;;;;;;;;;17.75;49.85;100773.03;4998298;28;1235;-49
2022/12/09 10:16:08;;;;;;;;;;;;;;;17.14;49.67;100772.13;4979140;28;1201;-51
2022/12/09 10:18:54;;;;;;;;;;;;;;;16.89;48.60;100762.00;4996899;28;1201;-47
2022/12/09 10:21:20;;;;;;;;;;;;;;;17.62;50.11;100746.97;4999282;28;1231;-45
2022/12/09 10:23:45;;;;;;;;;;;;;;;17.06;49.25;100757.03;4999114;28;1291;-51
2022/12/09 10:26:14;;;;;;;;;;;;;;;17.65;49.75;100749.16;4981551;28;1903;-51
2022/12/09 10:28:41;;;;;;;;;;;;;;;17.43;50.20;100747.59;4981547;28;1265;-51
2022/12/09 10:31:07;;;;;;;;;;;;;;;17.10;49.32;100738.88;4981560;28;1236;-51
2022/12/09 10:33:34;;;;;;;;;;;;;;;16.82;48.44;100739.47;4999115;28;1156;-49
2022/12/09 10:35:59;;;;;;;;;;;;;;;17.86;49.36;100740.81;4978535;28;1494;-45
2022/12/09 10:38:25;;;;;;;;;;;;;;;17.32;49.77;100743.25;4999152;28;2463;-48
2022/12/09 10:41:09;;;;;;;;;;;;;;;16.93;49.17;100732.88;4980400;28;1753;-50
2022/12/09 10:43:39;;;;;;;;;;;;;;;17.28;49.65;100729.22;4998400;28;1647;-50
2022/12/09 10:46:09;;;;;;;;;;;;;;;17.07;50.03;100731.19;4981684;28;2049;-48
2022/12/09 10:48:46;;;;;;;;;;;;;;;16.83;49.22;100728.19;4997727;28;2192;-45
2022/12/09 10:51:16;;;;;;;;;;;;;;;17.79;49.28;100730.97;4997676;28;2073;-51
2022/12/09 10:54:02;;;;;;;;;;;;;;;17.10;49.56;100716.09;4981058;28;922;-48
2022/12/09 10:56:29;;;;;;;;;;;;;;;16.89;48.41;100718.06;4997795;28;1164;-50
2022/12/09 10:59:07;;;;;;;;;;;;;;;17.07;48.82;100703.72;4996271;28;1156;-51
2022/12/09 11:01:52;;;;;;;;;;;;;;;17.32;49.51;100707.50;4988824;28;1133;-50
2022/12/09 11:04:21;;;;;;;;;;;;;;;17.76;49.67;100703.19;4993877;28;1113;-49
2022/12/09 11:06:47;;;;;;;;;;;;;;;18.54;48.62;100711.78;4988829;28;1914;-52
2022/12/09 11:09:23;;;;;;;;;;;;;;;17.44;49.83;100691.50;4997538;28;1136;-51
2022/12/09 11:11:49;;;;;;;;;;;;;;;17.03;49.07;100691.66;4980603;28;1082;-53
2022/12/09 11:14:21;;;;;;;;;;;;;;;16.88;48.00;100675.19;4998513;28;1208;-48
2022/12/09 11:16:47;;;;;;;;;;;;;;;17.25;49.01;100687.72;4997285;28;904;-51
2022/12/09 11:19:13;;;;;;;;;;;;;;;17.42;49.86;100688.22;4979623;28;1156;-50
2022/12/09 11:21:38;;;;;;;;;;;;;;;16.99;49.03;100698.00;4982323;28;2264;-52
2022/12/09 11:24:04;;;;;;;;;;;;;;;16.84;48.42;100690.56;4997811;28;1137;-51
2022/12/09 11:26:34;;;;;;;;;;;;;;;16.72;47.54;100691.69;4997323;28;1909;-45
2022/12/09 11:29:00;;;;;;;;;;;;;;;17.44;48.91;100685.19;4996070;28;1051;-46
2022/12/09 11:31:27;;;;;;;;;;;;;;;16.90;48.98;100693.06;4997592;28;1224;-53
2022/12/09 11:33:53;;;;;;;;;;;;;;;16.59;48.26;100681.25;4996201;28;1085;-53
2022/12/09 11:36:34;;;;;;;;;;;;;;;17.85;48.57;100674.00;4986277;28;1156;-46
2022/12/09 11:39:07;;;;;;;;;;;;;;;17.01;49.25;100666.41;4979446;28;1133;-51
2022/12/09 11:44:17;;;;;;;;;;;;;;;17.06;49.80;100649.88;4985169;28;1124;-47
2022/12/09 11:46:42;;;;;;;;;;;;;;;16.90;48.64;100654.59;4997141;28;1914;-47
2022/12/09 11:49:15;;;;;;;;;;;;;;;17.05;49.11;100663.91;4980613;28;1145;-46
2022/12/09 11:51:41;;;;;;;;;;;;;;;17.35;49.56;100653.88;4979475;28;1196;-46
2022/12/09 11:54:19;;;;;;;;;;;;;;;16.84;49.06;100646.63;4980724;28;940;-46
2022/12/09 11:56:47;;;;;;;;;;;;;;;17.72;49.29;100664.41;4996347;28;1106;-45
2022/12/09 11:59:15;;;;;;;;;;;;;;;17.08;49.33;100653.19;4973517;28;938;-48
2022/12/09 12:01:45;;;;;;;;;;;;;;;16.80;48.74;100653.78;4989806;28;961;-46
2022/12/09 12:04:13;;;;;;;;;;;;;;;17.87;49.06;100655.25;4964656;28;1213;-49
2022/12/09 12:06:41;;;;;;;;;;;;;;;17.19;49.36;100656.69;4978929;28;1969;-48
2022/12/09 12:09:20;;;;;;;;;;;;;;;16.84;49.04;100655.66;4992221;28;1093;-49
2022/12/09 12:11:54;;;;;;;;;;;;;;;17.55;49.50;100656.53;4978746;28;1113;-48
2022/12/09 12:14:21;;;;;;;;;;;;;;;17.00;49.07;100648.25;4996250;28;1283;-49
2022/12/09 12:16:56;;;;;;;;;;;;;;;16.83;48.70;100653.22;4995844;28;1117;-45
2022/12/09 12:19:27;;;;;;;;;;;;;;;17.17;49.41;100656.16;4996286;28;898;-46
2022/12/09 12:21:52;;;;;;;;;;;;;;;17.26;49.43;100650.91;4994987;28;967;-44
2022/12/09 12:24:19;;;;;;;;;;;;;;;18.69;47.76;100659.31;4994593;28;886;-45
2022/12/09 12:26:50;;;;;;;;;;;;;;;17.37;49.77;100660.75;4995590;28;1910;-47
2022/12/09 12:29:18;;;;;;;;;;;;;;;17.06;48.76;100655.38;4994755;28;1113;-45
2022/12/09 12:31:59;;;;;;;;;;;;;;;16.87;48.26;100663.38;4995502;28;1152;-44
2022/12/09 12:34:43;;;;;;;;;;;;;;;17.50;49.32;100642.84;4995569;28;903;-49
2022/12/09 12:37:15;;;;;;;;;;;;;;;16.96;49.09;100652.66;4987534;28;1456;-46
2022/12/09 12:39:49;;;;;;;;;;;;;;;16.75;48.05;100668.34;4995541;28;1183;-48
2022/12/09 12:42:22;;;;;;;;;;;;;;;17.51;49.01;100669.22;4977489;28;1529;-44
2022/12/09 12:47:47;;;;;;;;;;;;;;;17.26;49.57;100661.91;4994145;28;1910;-48
2022/12/09 12:50:12;;;;;;;;;;;;;;;17.12;49.42;100655.38;4994924;28;935;-46
2022/12/09 12:52:59;;;;;;;;;;;;;;;16.75;48.66;100660.91;4995180;28;1153;-50
2022/12/09 12:55:43;;;;;;;;;;;;;;;17.12;49.12;100656.19;4978001;28;1177;-45